sensor_id;sensor_type;location;lat;lon;timestamp;P1;P2;P0
77516;PMS7003;68414;53.946;27.634;2024-01-16T00:00:36;16.916666;15.000000;10.266666
77516;PMS7003;68414;53.946;27.634;2024-01-16T00:01:36;15.483334;13.416667;9.200000
77516;PMS7003;68414;53.946;27.634;2024-01-16T00:02:36;16.416666;15.433333;10.666667
77516;PMS7003;68414;53.946;27.634;2024-01-16T00:03:38;16.166666;14.716666;10.433333
77516;PMS7003;68414;53.946;27.634;2024-01-16T00:04:37;15.133333;14.483334;10.233334
77516;PMS7003;68414;53.946;27.634;2024-01-16T00:05:36;16.150000;14.266666;9.333333
77516;PMS7003;68414;53.946;27.634;2024-01-16T00:07:38;14.483334;13.233334;9.500000
77516;PMS7003;68414;53.946;27.634;2024-01-16T00:08:36;17.566668;14.850000;9.583333
77516;PMS7003;68414;53.946;27.634;2024-01-16T00:09:36;20.316668;15.616667;10.066667
77516;PMS7003;68414;53.946;27.634;2024-01-16T00:10:36;15.716666;13.816667;10.216666
77516;PMS7003;68414;53.946;27.634;2024-01-16T00:12:36;14.583333;12.783334;9.583333
77516;PMS7003;68414;53.946;27.634;2024-01-16T00:13:36;16.983334;13.233334;9.300000
77516;PMS7003;68414;53.946;27.634;2024-01-16T00:14:36;12.733334;11.033334;8.750000
77516;PMS7003;68414;53.946;27.634;2024-01-16T00:15:36;13.483334;12.566667;8.950000
77516;PMS7003;68414;53.946;27.634;2024-01-16T00:17:36;17.049999;14.550000;9.416667
77516;PMS7003;68414;53.946;27.634;2024-01-16T00:18:36;14.066667;12.550000;8.916667
77516;PMS7003;68414;53.946;27.634;2024-01-16T00:19:36;14.616667;12.400000;8.533334
77516;PMS7003;68414;53.946;27.634;2024-01-16T00:20:36;14.566667;12.583333;8.650000
77516;PMS7003;68414;53.946;27.634;2024-01-16T00:21:39;12.466666;12.200000;8.450000
77516;PMS7003;68414;53.946;27.634;2024-01-16T00:22:36;12.766666;12.300000;8.500000
77516;PMS7003;68414;53.946;27.634;2024-01-16T00:23:36;13.816667;12.016666;9.333333
77516;PMS7003;68414;53.946;27.634;2024-01-16T00:24:36;13.050000;12.066667;8.683333
77516;PMS7003;68414;53.946;27.634;2024-01-16T00:25:36;11.366667;10.983334;8.016666
77516;PMS7003;68414;53.946;27.634;2024-01-16T00:26:36;10.166667;8.816667;7.316667
77516;PMS7003;68414;53.946;27.634;2024-01-16T00:27:36;13.100000;11.183333;7.716667
77516;PMS7003;68414;53.946;27.634;2024-01-16T00:28:36;13.066667;11.766666;7.983333
77516;PMS7003;68414;53.946;27.634;2024-01-16T00:29:37;13.783334;11.516666;8.050000
77516;PMS7003;68414;53.946;27.634;2024-01-16T00:30:36;12.200000;10.750000;8.083333
77516;PMS7003;68414;53.946;27.634;2024-01-16T00:31:36;13.366667;11.200000;8.000000
77516;PMS7003;68414;53.946;27.634;2024-01-16T00:32:36;13.850000;11.900000;8.366667
77516;PMS7003;68414;53.946;27.634;2024-01-16T00:33:36;13.983334;11.516666;8.633333
77516;PMS7003;68414;53.946;27.634;2024-01-16T00:34:36;11.633333;10.516666;8.066667
77516;PMS7003;68414;53.946;27.634;2024-01-16T00:35:36;13.233334;12.783334;9.350000
77516;PMS7003;68414;53.946;27.634;2024-01-16T00:36:37;10.800000;10.450000;7.083333
77516;PMS7003;68414;53.946;27.634;2024-01-16T00:37:37;11.850000;9.916667;7.183333
77516;PMS7003;68414;53.946;27.634;2024-01-16T00:38:36;11.700000;10.100000;7.900000
77516;PMS7003;68414;53.946;27.634;2024-01-16T00:39:36;12.683333;10.583333;7.533333
77516;PMS7003;68414;53.946;27.634;2024-01-16T00:40:36;12.950000;11.983334;7.683333
77516;PMS7003;68414;53.946;27.634;2024-01-16T00:41:36;12.183333;10.700000;7.316667
77516;PMS7003;68414;53.946;27.634;2024-01-16T00:42:36;12.350000;11.216666;8.216666
77516;PMS7003;68414;53.946;27.634;2024-01-16T00:43:36;13.350000;12.283334;8.516666
77516;PMS7003;68414;53.946;27.634;2024-01-16T00:44:36;13.150000;11.333333;7.050000
77516;PMS7003;68414;53.946;27.634;2024-01-16T00:45:36;11.116667;9.333333;6.650000
77516;PMS7003;68414;53.946;27.634;2024-01-16T00:46:36;12.250000;11.900000;8.316667
77516;PMS7003;68414;53.946;27.634;2024-01-16T00:47:36;13.166667;10.616667;7.883333
77516;PMS7003;68414;53.946;27.634;2024-01-16T00:48:36;12.183333;11.916667;8.550000
77516;PMS7003;68414;53.946;27.634;2024-01-16T00:49:36;10.200000;9.766666;8.100000
77516;PMS7003;68414;53.946;27.634;2024-01-16T00:50:36;10.500000;9.733334;7.916667
77516;PMS7003;68414;53.946;27.634;2024-01-16T00:51:38;13.366667;11.366667;8.433333
77516;PMS7003;68414;53.946;27.634;2024-01-16T00:52:36;12.983334;12.016666;8.183333
77516;PMS7003;68414;53.946;27.634;2024-01-16T00:53:43;11.050000;10.366667;7.400000
77516;PMS7003;68414;53.946;27.634;2024-01-16T00:54:36;11.383333;9.416667;7.550000
77516;PMS7003;68414;53.946;27.634;2024-01-16T00:55:37;11.233334;9.450000;7.550000
77516;PMS7003;68414;53.946;27.634;2024-01-16T00:56:36;10.416667;9.383333;7.750000
77516;PMS7003;68414;53.946;27.634;2024-01-16T00:57:36;12.266666;10.883333;8.033334
77516;PMS7003;68414;53.946;27.634;2024-01-16T00:58:36;9.533334;8.216666;6.566667
77516;PMS7003;68414;53.946;27.634;2024-01-16T00:59:36;11.500000;9.483334;7.216667
77516;PMS7003;68414;53.946;27.634;2024-01-16T01:00:36;9.483334;8.566667;6.466667
77516;PMS7003;68414;53.946;27.634;2024-01-16T01:01:38;8.666667;8.666667;6.666667
77516;PMS7003;68414;53.946;27.634;2024-01-16T01:02:36;9.650000;9.450000;7.100000
77516;PMS7003;68414;53.946;27.634;2024-01-16T01:03:36;10.600000;8.683333;7.100000
77516;PMS7003;68414;53.946;27.634;2024-01-16T01:04:36;8.916667;8.316667;6.300000
77516;PMS7003;68414;53.946;27.634;2024-01-16T01:05:36;9.350000;8.833333;5.983333
77516;PMS7003;68414;53.946;27.634;2024-01-16T01:06:36;10.400000;9.116667;6.533333
77516;PMS7003;68414;53.946;27.634;2024-01-16T01:07:36;8.700000;8.100000;6.050000
77516;PMS7003;68414;53.946;27.634;2024-01-16T01:08:36;9.000000;8.066667;5.950000
77516;PMS7003;68414;53.946;27.634;2024-01-16T01:09:36;9.750000;8.550000;6.150000
77516;PMS7003;68414;53.946;27.634;2024-01-16T01:10:36;10.533334;8.533334;6.033333
77516;PMS7003;68414;53.946;27.634;2024-01-16T01:11:36;8.950000;7.866667;6.516667
77516;PMS7003;68414;53.946;27.634;2024-01-16T01:12:36;9.666667;8.183333;6.083333
77516;PMS7003;68414;53.946;27.634;2024-01-16T01:13:36;7.733333;7.700000;5.166667
77516;PMS7003;68414;53.946;27.634;2024-01-16T01:14:36;7.650000;7.383333;4.850000
77516;PMS7003;68414;53.946;27.634;2024-01-16T01:15:36;8.283334;7.883333;5.800000
77516;PMS7003;68414;53.946;27.634;2024-01-16T01:16:36;8.866667;7.850000;5.850000
77516;PMS7003;68414;53.946;27.634;2024-01-16T01:17:36;8.666667;8.316667;5.433333
77516;PMS7003;68414;53.946;27.634;2024-01-16T01:18:36;9.266666;8.083333;5.533333
77516;PMS7003;68414;53.946;27.634;2024-01-16T01:19:36;9.616667;7.500000;5.916667
77516;PMS7003;68414;53.946;27.634;2024-01-16T01:20:36;9.383333;8.450000;5.500000
77516;PMS7003;68414;53.946;27.634;2024-01-16T01:21:36;9.483334;9.166667;6.500000
77516;PMS7003;68414;53.946;27.634;2024-01-16T01:22:36;9.216666;8.416667;5.733333
77516;PMS7003;68414;53.946;27.634;2024-01-16T01:23:36;8.166667;7.816667;5.516667
77516;PMS7003;68414;53.946;27.634;2024-01-16T01:24:36;8.100000;7.916667;5.900000
77516;PMS7003;68414;53.946;27.634;2024-01-16T01:25:36;8.866667;7.633333;5.916667
77516;PMS7003;68414;53.946;27.634;2024-01-16T01:26:36;8.166667;7.416667;4.816667
77516;PMS7003;68414;53.946;27.634;2024-01-16T01:27:36;10.350000;8.800000;6.166667
77516;PMS7003;68414;53.946;27.634;2024-01-16T01:28:35;8.800000;8.166667;6.483333
77516;PMS7003;68414;53.946;27.634;2024-01-16T01:29:36;9.583333;8.483334;6.233333
77516;PMS7003;68414;53.946;27.634;2024-01-16T01:30:38;8.733334;7.666667;5.583333
77516;PMS7003;68414;53.946;27.634;2024-01-16T01:31:36;8.133333;7.350000;5.400000
77516;PMS7003;68414;53.946;27.634;2024-01-16T01:32:36;9.266666;7.816667;6.333333
77516;PMS7003;68414;53.946;27.634;2024-01-16T01:33:36;8.000000;7.650000;5.983333
77516;PMS7003;68414;53.946;27.634;2024-01-16T01:34:36;8.183333;7.866667;5.350000
77516;PMS7003;68414;53.946;27.634;2024-01-16T01:35:37;11.600000;10.833333;7.116667
77516;PMS7003;68414;53.946;27.634;2024-01-16T01:36:36;8.300000;7.933333;5.883333
77516;PMS7003;68414;53.946;27.634;2024-01-16T01:37:36;11.400000;9.816667;5.866667
77516;PMS7003;68414;53.946;27.634;2024-01-16T01:38:36;9.466666;8.366667;5.633333
77516;PMS7003;68414;53.946;27.634;2024-01-16T01:39:36;8.250000;7.683333;5.133333
77516;PMS7003;68414;53.946;27.634;2024-01-16T01:40:36;8.700000;7.550000;5.033333
77516;PMS7003;68414;53.946;27.634;2024-01-16T01:41:36;7.750000;6.983333;4.783333
77516;PMS7003;68414;53.946;27.634;2024-01-16T01:42:36;10.616667;9.366667;7.283333
77516;PMS7003;68414;53.946;27.634;2024-01-16T01:43:36;8.383333;8.183333;5.900000
77516;PMS7003;68414;53.946;27.634;2024-01-16T01:44:36;7.483333;7.483333;6.100000
77516;PMS7003;68414;53.946;27.634;2024-01-16T01:45:37;8.383333;7.733333;5.433333
77516;PMS7003;68414;53.946;27.634;2024-01-16T01:46:36;8.700000;7.733333;5.216667
77516;PMS7003;68414;53.946;27.634;2024-01-16T01:47:40;8.400000;7.716667;4.950000
77516;PMS7003;68414;53.946;27.634;2024-01-16T01:48:37;8.983334;7.716667;5.666667
77516;PMS7003;68414;53.946;27.634;2024-01-16T01:49:37;8.616667;6.983333;5.600000
77516;PMS7003;68414;53.946;27.634;2024-01-16T01:50:36;7.233333;7.083333;5.233333
77516;PMS7003;68414;53.946;27.634;2024-01-16T01:51:36;7.716667;6.716667;4.666667
77516;PMS7003;68414;53.946;27.634;2024-01-16T01:52:38;7.066667;5.916667;4.566667
77516;PMS7003;68414;53.946;27.634;2024-01-16T01:53:36;9.766666;7.566667;5.500000
77516;PMS7003;68414;53.946;27.634;2024-01-16T01:54:37;8.983334;7.533333;5.350000
77516;PMS7003;68414;53.946;27.634;2024-01-16T01:55:35;7.016667;6.600000;5.166667
77516;PMS7003;68414;53.946;27.634;2024-01-16T01:56:36;6.083333;6.083333;4.583333
77516;PMS7003;68414;53.946;27.634;2024-01-16T01:57:36;7.850000;7.700000;5.233333
77516;PMS7003;68414;53.946;27.634;2024-01-16T01:58:36;7.350000;7.183333;4.650000
77516;PMS7003;68414;53.946;27.634;2024-01-16T01:59:36;8.900000;7.950000;5.316667
77516;PMS7003;68414;53.946;27.634;2024-01-16T02:00:36;7.966667;7.633333;5.166667
77516;PMS7003;68414;53.946;27.634;2024-01-16T02:01:36;6.533333;5.750000;4.050000
77516;PMS7003;68414;53.946;27.634;2024-01-16T02:02:36;5.866667;5.016667;3.650000
77516;PMS7003;68414;53.946;27.634;2024-01-16T02:03:46;5.350000;5.083333;3.866667
77516;PMS7003;68414;53.946;27.634;2024-01-16T02:04:38;8.750000;7.550000;4.800000
77516;PMS7003;68414;53.946;27.634;2024-01-16T02:05:36;7.016667;6.233333;4.733333
77516;PMS7003;68414;53.946;27.634;2024-01-16T02:06:36;6.650000;5.433333;3.950000
77516;PMS7003;68414;53.946;27.634;2024-01-16T02:07:36;6.983333;6.466667;4.066667
77516;PMS7003;68414;53.946;27.634;2024-01-16T02:08:36;6.716667;5.533333;4.033333
77516;PMS7003;68414;53.946;27.634;2024-01-16T02:09:36;5.383333;5.383333;3.833333
77516;PMS7003;68414;53.946;27.634;2024-01-16T02:10:39;7.016667;6.733333;4.433333
77516;PMS7003;68414;53.946;27.634;2024-01-16T02:11:38;6.700000;5.483333;3.700000
77516;PMS7003;68414;53.946;27.634;2024-01-16T02:12:36;5.200000;4.166667;3.366667
77516;PMS7003;68414;53.946;27.634;2024-01-16T02:13:36;4.516667;4.333333;3.600000
77516;PMS7003;68414;53.946;27.634;2024-01-16T02:14:35;5.616667;5.333333;3.700000
77516;PMS7003;68414;53.946;27.634;2024-01-16T02:15:35;6.050000;5.666667;4.183333
77516;PMS7003;68414;53.946;27.634;2024-01-16T02:17:35;5.600000;4.316667;3.750000
77516;PMS7003;68414;53.946;27.634;2024-01-16T02:18:36;6.666667;5.366667;3.616667
77516;PMS7003;68414;53.946;27.634;2024-01-16T02:19:36;6.166667;4.300000;3.316667
77516;PMS7003;68414;53.946;27.634;2024-01-16T02:20:36;5.616667;4.366667;3.483333
77516;PMS7003;68414;53.946;27.634;2024-01-16T02:22:37;5.350000;5.216667;3.816667
77516;PMS7003;68414;53.946;27.634;2024-01-16T02:23:36;5.733333;5.100000;4.150000
77516;PMS7003;68414;53.946;27.634;2024-01-16T02:24:36;4.833333;4.666667;3.233333
77516;PMS7003;68414;53.946;27.634;2024-01-16T02:25:35;6.250000;5.050000;4.133333
77516;PMS7003;68414;53.946;27.634;2024-01-16T02:26:37;4.483333;3.983333;2.883333
77516;PMS7003;68414;53.946;27.634;2024-01-16T02:27:35;5.666667;5.383333;3.983333
77516;PMS7003;68414;53.946;27.634;2024-01-16T02:28:37;6.550000;5.133333;3.833333
77516;PMS7003;68414;53.946;27.634;2024-01-16T02:30:36;5.750000;4.283333;3.200000
77516;PMS7003;68414;53.946;27.634;2024-01-16T02:31:36;4.816667;4.616667;3.233333
77516;PMS7003;68414;53.946;27.634;2024-01-16T02:32:36;5.583333;4.550000;3.300000
77516;PMS7003;68414;53.946;27.634;2024-01-16T02:33:36;4.716667;4.483333;3.633333
77516;PMS7003;68414;53.946;27.634;2024-01-16T02:34:35;5.066667;4.900000;3.400000
77516;PMS7003;68414;53.946;27.634;2024-01-16T02:35:36;5.533333;5.366667;3.500000
77516;PMS7003;68414;53.946;27.634;2024-01-16T02:36:36;4.033333;3.383333;2.733333
77516;PMS7003;68414;53.946;27.634;2024-01-16T02:37:36;4.533333;3.666667;2.966667
77516;PMS7003;68414;53.946;27.634;2024-01-16T02:38:36;4.166667;3.766667;2.950000
77516;PMS7003;68414;53.946;27.634;2024-01-16T02:39:36;4.383333;4.250000;3.266667
77516;PMS7003;68414;53.946;27.634;2024-01-16T02:40:38;3.283333;3.283333;2.783333
77516;PMS7003;68414;53.946;27.634;2024-01-16T02:41:35;2.783333;2.783333;2.400000
77516;PMS7003;68414;53.946;27.634;2024-01-16T02:42:35;3.250000;3.066667;2.550000
77516;PMS7003;68414;53.946;27.634;2024-01-16T02:43:35;3.450000;3.150000;2.700000
77516;PMS7003;68414;53.946;27.634;2024-01-16T02:44:35;3.600000;2.883333;2.300000
77516;PMS7003;68414;53.946;27.634;2024-01-16T02:45:36;2.633333;2.633333;2.100000
77516;PMS7003;68414;53.946;27.634;2024-01-16T02:46:36;3.266667;3.100000;2.333333
77516;PMS7003;68414;53.946;27.634;2024-01-16T02:47:36;2.800000;2.450000;1.983333
77516;PMS7003;68414;53.946;27.634;2024-01-16T02:48:36;2.750000;2.650000;2.216667
77516;PMS7003;68414;53.946;27.634;2024-01-16T02:49:36;3.583333;3.433333;2.616667
77516;PMS7003;68414;53.946;27.634;2024-01-16T02:50:36;3.383333;2.700000;2.200000
77516;PMS7003;68414;53.946;27.634;2024-01-16T02:51:35;4.000000;3.316667;2.566667
77516;PMS7003;68414;53.946;27.634;2024-01-16T02:52:36;3.316667;2.750000;2.116667
77516;PMS7003;68414;53.946;27.634;2024-01-16T02:53:35;3.366667;2.783333;2.200000
77516;PMS7003;68414;53.946;27.634;2024-01-16T02:54:36;3.500000;3.500000;2.666667
77516;PMS7003;68414;53.946;27.634;2024-01-16T02:55:36;3.383333;2.733333;2.250000
77516;PMS7003;68414;53.946;27.634;2024-01-16T02:56:36;4.366667;3.433333;2.533333
77516;PMS7003;68414;53.946;27.634;2024-01-16T02:57:36;3.133333;2.966667;2.616667
77516;PMS7003;68414;53.946;27.634;2024-01-16T02:58:36;3.400000;2.766667;2.366667
77516;PMS7003;68414;53.946;27.634;2024-01-16T02:59:35;4.600000;3.633333;2.733333
77516;PMS7003;68414;53.946;27.634;2024-01-16T03:00:35;3.100000;2.883333;2.350000
77516;PMS7003;68414;53.946;27.634;2024-01-16T03:01:35;2.850000;2.850000;2.400000
77516;PMS7003;68414;53.946;27.634;2024-01-16T03:02:35;4.300000;3.483333;2.733333
77516;PMS7003;68414;53.946;27.634;2024-01-16T03:03:35;4.100000;3.900000;3.050000
77516;PMS7003;68414;53.946;27.634;2024-01-16T03:04:36;5.050000;3.333333;2.766667
77516;PMS7003;68414;53.946;27.634;2024-01-16T03:05:36;3.966667;3.850000;2.800000
77516;PMS7003;68414;53.946;27.634;2024-01-16T03:06:36;3.933333;3.766667;3.283333
77516;PMS7003;68414;53.946;27.634;2024-01-16T03:07:36;3.650000;3.300000;2.533333
77516;PMS7003;68414;53.946;27.634;2024-01-16T03:08:36;5.100000;3.750000;2.950000
77516;PMS7003;68414;53.946;27.634;2024-01-16T03:09:35;3.250000;3.250000;2.900000
77516;PMS7003;68414;53.946;27.634;2024-01-16T03:10:35;3.016667;3.016667;2.600000
77516;PMS7003;68414;53.946;27.634;2024-01-16T03:11:35;3.283333;3.200000;2.700000
77516;PMS7003;68414;53.946;27.634;2024-01-16T03:12:35;3.550000;3.466667;2.600000
77516;PMS7003;68414;53.946;27.634;2024-01-16T03:13:35;3.500000;3.433333;2.616667
77516;PMS7003;68414;53.946;27.634;2024-01-16T03:14:36;4.150000;3.366667;2.766667
77516;PMS7003;68414;53.946;27.634;2024-01-16T03:15:36;3.583333;3.450000;2.833333
77516;PMS7003;68414;53.946;27.634;2024-01-16T03:16:36;3.450000;2.866667;2.216667
77516;PMS7003;68414;53.946;27.634;2024-01-16T03:17:36;3.566667;2.750000;2.350000
77516;PMS7003;68414;53.946;27.634;2024-01-16T03:18:36;3.333333;2.933333;2.066667
77516;PMS7003;68414;53.946;27.634;2024-01-16T03:19:35;3.716667;3.166667;2.633333
77516;PMS7003;68414;53.946;27.634;2024-01-16T03:20:35;3.633333;3.350000;2.816667
77516;PMS7003;68414;53.946;27.634;2024-01-16T03:21:35;3.350000;2.466667;1.950000
77516;PMS7003;68414;53.946;27.634;2024-01-16T03:22:35;2.716667;2.716667;2.333333
77516;PMS7003;68414;53.946;27.634;2024-01-16T03:23:35;3.816667;3.650000;2.900000
77516;PMS7003;68414;53.946;27.634;2024-01-16T03:24:36;5.300000;4.933333;3.800000
77516;PMS7003;68414;53.946;27.634;2024-01-16T03:25:36;3.833333;3.833333;3.350000
77516;PMS7003;68414;53.946;27.634;2024-01-16T03:26:36;3.766667;3.083333;2.300000
77516;PMS7003;68414;53.946;27.634;2024-01-16T03:27:36;3.733333;3.283333;2.066667
77516;PMS7003;68414;53.946;27.634;2024-01-16T03:28:36;3.533333;3.183333;2.633333
77516;PMS7003;68414;53.946;27.634;2024-01-16T03:29:35;3.416667;3.100000;2.566667
77516;PMS7003;68414;53.946;27.634;2024-01-16T03:30:35;3.933333;3.933333;2.933333
77516;PMS7003;68414;53.946;27.634;2024-01-16T03:31:35;4.950000;3.866667;2.450000
77516;PMS7003;68414;53.946;27.634;2024-01-16T03:32:36;4.766667;3.700000;2.916667
77516;PMS7003;68414;53.946;27.634;2024-01-16T03:33:35;4.750000;3.933333;2.950000
77516;PMS7003;68414;53.946;27.634;2024-01-16T03:34:36;6.266667;5.650000;3.816667
77516;PMS7003;68414;53.946;27.634;2024-01-16T03:35:36;3.650000;2.900000;2.550000
77516;PMS7003;68414;53.946;27.634;2024-01-16T03:36:36;3.383333;3.300000;2.783333
77516;PMS7003;68414;53.946;27.634;2024-01-16T03:37:37;3.050000;2.633333;2.200000
77516;PMS7003;68414;53.946;27.634;2024-01-16T03:38:36;4.850000;3.983333;3.166667
77516;PMS7003;68414;53.946;27.634;2024-01-16T03:39:35;5.150000;4.566667;3.116667
77516;PMS7003;68414;53.946;27.634;2024-01-16T03:40:35;4.316667;3.916667;3.000000
77516;PMS7003;68414;53.946;27.634;2024-01-16T03:41:35;3.416667;3.033333;2.666667
77516;PMS7003;68414;53.946;27.634;2024-01-16T03:42:35;4.633333;2.666667;2.183333
77516;PMS7003;68414;53.946;27.634;2024-01-16T03:43:35;5.933333;5.433333;3.833333
77516;PMS7003;68414;53.946;27.634;2024-01-16T03:45:36;5.283333;3.350000;2.716667
77516;PMS7003;68414;53.946;27.634;2024-01-16T03:46:35;3.750000;3.416667;2.800000
77516;PMS7003;68414;53.946;27.634;2024-01-16T03:47:36;3.966667;3.166667;2.816667
77516;PMS7003;68414;53.946;27.634;2024-01-16T03:48:36;2.983333;2.716667;2.316667
77516;PMS7003;68414;53.946;27.634;2024-01-16T03:49:35;3.500000;2.833333;2.350000
77516;PMS7003;68414;53.946;27.634;2024-01-16T03:50:35;3.483333;3.483333;2.633333
77516;PMS7003;68414;53.946;27.634;2024-01-16T03:51:35;2.650000;2.650000;1.983333
77516;PMS7003;68414;53.946;27.634;2024-01-16T03:52:35;3.366667;2.666667;2.000000
77516;PMS7003;68414;53.946;27.634;2024-01-16T03:53:35;3.633333;3.316667;2.683333
77516;PMS7003;68414;53.946;27.634;2024-01-16T03:54:35;4.783333;3.150000;2.666667
77516;PMS7003;68414;53.946;27.634;2024-01-16T03:55:36;2.950000;2.866667;2.100000
77516;PMS7003;68414;53.946;27.634;2024-01-16T03:56:36;2.583333;2.583333;1.900000
77516;PMS7003;68414;53.946;27.634;2024-01-16T03:57:36;3.133333;3.133333;1.966667
77516;PMS7003;68414;53.946;27.634;2024-01-16T03:58:36;2.550000;2.550000;2.000000
77516;PMS7003;68414;53.946;27.634;2024-01-16T03:59:37;2.300000;2.083333;1.700000
77516;PMS7003;68414;53.946;27.634;2024-01-16T04:00:35;3.783333;2.316667;2.050000
77516;PMS7003;68414;53.946;27.634;2024-01-16T04:01:35;1.950000;1.950000;1.633333
77516;PMS7003;68414;53.946;27.634;2024-01-16T04:02:37;2.383333;1.983333;1.850000
77516;PMS7003;68414;53.946;27.634;2024-01-16T04:03:35;2.383333;2.150000;1.633333
77516;PMS7003;68414;53.946;27.634;2024-01-16T04:04:36;3.416667;2.216667;1.866667
77516;PMS7003;68414;53.946;27.634;2024-01-16T04:05:39;2.566667;1.950000;1.700000
77516;PMS7003;68414;53.946;27.634;2024-01-16T04:06:36;3.800000;3.216667;2.083333
77516;PMS7003;68414;53.946;27.634;2024-01-16T04:07:36;5.850000;5.200000;3.516667
77516;PMS7003;68414;53.946;27.634;2024-01-16T04:08:36;5.766667;4.633333;3.250000
77516;PMS7003;68414;53.946;27.634;2024-01-16T04:09:35;5.866667;3.250000;2.500000
77516;PMS7003;68414;53.946;27.634;2024-01-16T04:10:35;4.533333;3.216667;2.333333
77516;PMS7003;68414;53.946;27.634;2024-01-16T04:11:35;2.916667;2.916667;2.150000
77516;PMS7003;68414;53.946;27.634;2024-01-16T04:12:37;3.833333;3.833333;2.983333
77516;PMS7003;68414;53.946;27.634;2024-01-16T04:13:35;5.383333;5.283333;3.300000
77516;PMS7003;68414;53.946;27.634;2024-01-16T04:14:36;9.150000;7.200000;4.383333
77516;PMS7003;68414;53.946;27.634;2024-01-16T04:15:38;9.033334;8.416667;5.983333
77516;PMS7003;68414;53.946;27.634;2024-01-16T04:16:37;11.750000;9.750000;5.966667
77516;PMS7003;68414;53.946;27.634;2024-01-16T04:17:36;11.600000;10.400000;6.983333
77516;PMS7003;68414;53.946;27.634;2024-01-16T04:18:36;6.250000;5.633333;4.066667
77516;PMS7003;68414;53.946;27.634;2024-01-16T04:19:35;7.416667;6.466667;4.183333
77516;PMS7003;68414;53.946;27.634;2024-01-16T04:20:35;8.583333;7.483333;5.000000
77516;PMS7003;68414;53.946;27.634;2024-01-16T04:21:36;8.300000;7.366667;5.233333
77516;PMS7003;68414;53.946;27.634;2024-01-16T04:22:35;8.483334;8.350000;6.216667
77516;PMS7003;68414;53.946;27.634;2024-01-16T04:23:35;6.450000;5.933333;4.100000
77516;PMS7003;68414;53.946;27.634;2024-01-16T04:24:35;5.416667;5.416667;3.383333
77516;PMS7003;68414;53.946;27.634;2024-01-16T04:25:35;6.950000;6.833333;4.983333
77516;PMS7003;68414;53.946;27.634;2024-01-16T04:26:36;5.700000;4.333333;3.316667
77516;PMS7003;68414;53.946;27.634;2024-01-16T04:27:37;5.483333;5.366667;3.350000
77516;PMS7003;68414;53.946;27.634;2024-01-16T04:28:36;3.866667;3.366667;2.583333
77516;PMS7003;68414;53.946;27.634;2024-01-16T04:29:36;3.650000;3.550000;3.016667
77516;PMS7003;68414;53.946;27.634;2024-01-16T04:30:35;4.500000;3.866667;2.983333
77516;PMS7003;68414;53.946;27.634;2024-01-16T04:32:35;3.983333;3.433333;2.550000
77516;PMS7003;68414;53.946;27.634;2024-01-16T04:33:35;3.350000;3.350000;2.650000
77516;PMS7003;68414;53.946;27.634;2024-01-16T04:34:35;3.616667;2.933333;2.450000
77516;PMS7003;68414;53.946;27.634;2024-01-16T04:35:35;4.466667;4.100000;3.000000
77516;PMS7003;68414;53.946;27.634;2024-01-16T04:36:36;5.350000;4.950000;3.333333
77516;PMS7003;68414;53.946;27.634;2024-01-16T04:37:36;5.933333;5.200000;3.833333
77516;PMS7003;68414;53.946;27.634;2024-01-16T04:38:35;5.033333;4.933333;3.616667
77516;PMS7003;68414;53.946;27.634;2024-01-16T04:39:35;5.500000;4.900000;3.433333
77516;PMS7003;68414;53.946;27.634;2024-01-16T04:40:35;4.650000;3.783333;2.966667
77516;PMS7003;68414;53.946;27.634;2024-01-16T04:41:35;3.883333;3.883333;3.066667
77516;PMS7003;68414;53.946;27.634;2024-01-16T04:42:35;4.550000;3.866667;3.183333
77516;PMS7003;68414;53.946;27.634;2024-01-16T04:43:35;4.966667;4.150000;3.316667
77516;PMS7003;68414;53.946;27.634;2024-01-16T04:44:35;5.983333;5.983333;3.866667
77516;PMS7003;68414;53.946;27.634;2024-01-16T04:45:36;9.216666;9.216666;6.466667
77516;PMS7003;68414;53.946;27.634;2024-01-16T04:46:36;5.466667;4.416667;3.500000
77516;PMS7003;68414;53.946;27.634;2024-01-16T04:47:36;6.700000;6.316667;4.583333
77516;PMS7003;68414;53.946;27.634;2024-01-16T04:48:36;5.816667;4.450000;3.133333
77516;PMS7003;68414;53.946;27.634;2024-01-16T04:49:36;5.050000;4.983333;3.766667
77516;PMS7003;68414;53.946;27.634;2024-01-16T04:50:35;5.900000;3.916667;2.816667
77516;PMS7003;68414;53.946;27.634;2024-01-16T04:51:35;5.300000;3.600000;3.066667
77516;PMS7003;68414;53.946;27.634;2024-01-16T04:52:35;5.866667;4.300000;3.066667
77516;PMS7003;68414;53.946;27.634;2024-01-16T04:53:35;7.850000;7.183333;5.600000
77516;PMS7003;68414;53.946;27.634;2024-01-16T04:54:37;6.983333;5.316667;4.650000
77516;PMS7003;68414;53.946;27.634;2024-01-16T04:55:35;7.133333;5.066667;3.833333
77516;PMS7003;68414;53.946;27.634;2024-01-16T04:56:36;5.350000;5.166667;3.566667
77516;PMS7003;68414;53.946;27.634;2024-01-16T04:57:35;6.066667;5.400000;4.466667
77516;PMS7003;68414;53.946;27.634;2024-01-16T04:58:36;4.716667;3.866667;3.233333
77516;PMS7003;68414;53.946;27.634;2024-01-16T04:59:35;5.750000;4.450000;3.283333
77516;PMS7003;68414;53.946;27.634;2024-01-16T05:00:35;4.750000;4.483333;3.133333
77516;PMS7003;68414;53.946;27.634;2024-01-16T05:01:35;5.916667;5.133333;4.216667